sensor_id;sensor_type;location;lat;lon;timestamp;pressure;altitude;pressure_sealevel;temperature;humidity
44351;BME280;62766;62.622;17.912;2023-03-26T00:00:57;99934.14;;;-7.18;53.37
44351;BME280;62766;62.622;17.912;2023-03-26T00:03:25;99939.37;;;-7.25;53.35
44351;BME280;62766;62.622;17.912;2023-03-26T00:06:01;99938.90;;;-7.23;53.32
44351;BME280;62766;62.622;17.912;2023-03-26T00:08:30;99941.75;;;-7.22;53.65
44351;BME280;62766;62.622;17.912;2023-03-26T00:10:59;99942.88;;;-7.21;53.58
44351;BME280;62766;62.622;17.912;2023-03-26T00:13:27;99943.08;;;-7.19;53.32
44351;BME280;62766;62.622;17.912;2023-03-26T00:15:56;99939.65;;;-7.28;52.96
44351;BME280;62766;62.622;17.912;2023-03-26T00:18:25;99944.18;;;-7.30;52.88
44351;BME280;62766;62.622;17.912;2023-03-26T00:20:53;99943.99;;;-7.40;53.34
44351;BME280;62766;62.622;17.912;2023-03-26T00:23:22;99945.68;;;-7.53;53.50
44351;BME280;62766;62.622;17.912;2023-03-26T00:25:51;99949.07;;;-7.40;53.49
44351;BME280;62766;62.622;17.912;2023-03-26T00:28:21;99951.88;;;-7.41;53.67
44351;BME280;62766;62.622;17.912;2023-03-26T00:33:24;99954.30;;;-7.49;53.50
44351;BME280;62766;62.622;17.912;2023-03-26T00:35:55;99953.18;;;-7.53;53.11
44351;BME280;62766;62.622;17.912;2023-03-26T00:38:25;99953.62;;;-7.45;53.37
44351;BME280;62766;62.622;17.912;2023-03-26T00:40:54;99952.28;;;-7.61;53.29
44351;BME280;62766;62.622;17.912;2023-03-26T00:43:22;99953.22;;;-7.58;53.26
44351;BME280;62766;62.622;17.912;2023-03-26T00:45:53;99953.02;;;-7.47;53.43
44351;BME280;62766;62.622;17.912;2023-03-26T00:48:22;99954.85;;;-7.56;53.76
44351;BME280;62766;62.622;17.912;2023-03-26T00:50:50;99955.19;;;-7.59;53.58
44351;BME280;62766;62.622;17.912;2023-03-26T00:53:20;99957.08;;;-7.57;53.02
44351;BME280;62766;62.622;17.912;2023-03-26T00:55:48;99958.94;;;-7.63;52.86
44351;BME280;62766;62.622;17.912;2023-03-26T00:58:17;99959.35;;;-7.78;52.89
44351;BME280;62766;62.622;17.912;2023-03-26T01:00:49;99961.52;;;-7.67;53.19
44351;BME280;62766;62.622;17.912;2023-03-26T01:03:19;99965.24;;;-7.78;52.98
44351;BME280;62766;62.622;17.912;2023-03-26T01:05:50;99965.28;;;-7.51;52.86
44351;BME280;62766;62.622;17.912;2023-03-26T01:08:24;99969.61;;;-7.73;52.49
44351;BME280;62766;62.622;17.912;2023-03-26T01:10:56;99968.56;;;-7.74;52.17
44351;BME280;62766;62.622;17.912;2023-03-26T01:13:25;99966.09;;;-7.87;52.42
44351;BME280;62766;62.622;17.912;2023-03-26T01:15:54;99968.89;;;-7.80;52.47
44351;BME280;62766;62.622;17.912;2023-03-26T01:18:23;99976.18;;;-7.90;52.41
44351;BME280;62766;62.622;17.912;2023-03-26T01:20:53;99980.49;;;-7.89;52.33
44351;BME280;62766;62.622;17.912;2023-03-26T01:23:28;99982.25;;;-7.92;52.60
44351;BME280;62766;62.622;17.912;2023-03-26T01:26:04;99980.77;;;-7.99;52.71
44351;BME280;62766;62.622;17.912;2023-03-26T01:28:36;99986.34;;;-8.08;52.73
44351;BME280;62766;62.622;17.912;2023-03-26T01:31:10;99985.35;;;-8.08;52.82
44351;BME280;62766;62.622;17.912;2023-03-26T01:33:42;99986.15;;;-7.99;52.69
44351;BME280;62766;62.622;17.912;2023-03-26T01:36:17;99982.64;;;-8.12;52.56
44351;BME280;62766;62.622;17.912;2023-03-26T01:38:53;99988.04;;;-8.13;52.19
44351;BME280;62766;62.622;17.912;2023-03-26T01:41:31;99990.59;;;-8.12;51.98
44351;BME280;62766;62.622;17.912;2023-03-26T01:44:07;99990.48;;;-8.16;51.78
44351;BME280;62766;62.622;17.912;2023-03-26T01:46:38;99995.03;;;-8.30;51.93
44351;BME280;62766;62.622;17.912;2023-03-26T01:49:07;99997.30;;;-8.23;52.08
44351;BME280;62766;62.622;17.912;2023-03-26T01:51:35;99999.78;;;-8.34;52.51
44351;BME280;62766;62.622;17.912;2023-03-26T01:54:07;100004.29;;;-8.23;52.46
44351;BME280;62766;62.622;17.912;2023-03-26T01:56:45;100006.18;;;-8.27;52.32
44351;BME280;62766;62.622;17.912;2023-03-26T01:59:33;100007.19;;;-8.37;52.42
44351;BME280;62766;62.622;17.912;2023-03-26T02:02:11;100006.60;;;-8.40;52.37
44351;BME280;62766;62.622;17.912;2023-03-26T02:04:46;100006.63;;;-8.40;52.56
44351;BME280;62766;62.622;17.912;2023-03-26T02:07:21;100009.33;;;-8.47;52.84
44351;BME280;62766;62.622;17.912;2023-03-26T02:09:57;100009.20;;;-8.47;52.90
44351;BME280;62766;62.622;17.912;2023-03-26T02:12:27;100010.14;;;-8.41;53.37
44351;BME280;62766;62.622;17.912;2023-03-26T02:14:58;100008.73;;;-8.42;53.10
44351;BME280;62766;62.622;17.912;2023-03-26T02:17:28;100007.19;;;-8.31;52.75
44351;BME280;62766;62.622;17.912;2023-03-26T02:19:56;100012.44;;;-8.37;52.66
44351;BME280;62766;62.622;17.912;2023-03-26T02:22:25;100015.58;;;-8.37;52.58
44351;BME280;62766;62.622;17.912;2023-03-26T02:24:54;100015.44;;;-8.35;52.55
44351;BME280;62766;62.622;17.912;2023-03-26T02:27:23;100019.39;;;-8.52;52.30
44351;BME280;62766;62.622;17.912;2023-03-26T02:29:51;100020.17;;;-8.47;52.06
44351;BME280;62766;62.622;17.912;2023-03-26T02:32:21;100019.84;;;-8.45;51.94
44351;BME280;62766;62.622;17.912;2023-03-26T02:34:49;100021.69;;;-8.52;51.72
44351;BME280;62766;62.622;17.912;2023-03-26T02:37:18;100022.85;;;-8.56;51.94
44351;BME280;62766;62.622;17.912;2023-03-26T02:39:46;100027.47;;;-8.60;52.10
44351;BME280;62766;62.622;17.912;2023-03-26T02:42:15;100030.21;;;-8.71;51.97
44351;BME280;62766;62.622;17.912;2023-03-26T02:44:44;100030.67;;;-8.66;51.82
44351;BME280;62766;62.622;17.912;2023-03-26T02:47:13;100032.51;;;-8.64;51.78
44351;BME280;62766;62.622;17.912;2023-03-26T02:49:42;100032.24;;;-8.74;51.74
44351;BME280;62766;62.622;17.912;2023-03-26T02:52:10;100033.10;;;-8.75;51.78
44351;BME280;62766;62.622;17.912;2023-03-26T02:54:39;100033.50;;;-8.80;51.68
44351;BME280;62766;62.622;17.912;2023-03-26T02:57:08;100036.25;;;-8.76;51.21
44351;BME280;62766;62.622;17.912;2023-03-26T02:59:37;100035.33;;;-8.83;51.14
44351;BME280;62766;62.622;17.912;2023-03-26T03:02:05;100036.46;;;-8.95;51.44
44351;BME280;62766;62.622;17.912;2023-03-26T03:04:34;100033.17;;;-8.97;51.76
44351;BME280;62766;62.622;17.912;2023-03-26T03:07:03;100037.48;;;-8.84;52.50
44351;BME280;62766;62.622;17.912;2023-03-26T03:09:32;100037.83;;;-8.95;52.58
44351;BME280;62766;62.622;17.912;2023-03-26T03:12:01;100038.58;;;-8.91;52.81
44351;BME280;62766;62.622;17.912;2023-03-26T03:14:30;100038.21;;;-9.01;52.62
44351;BME280;62766;62.622;17.912;2023-03-26T03:16:59;100041.85;;;-8.88;52.87
44351;BME280;62766;62.622;17.912;2023-03-26T03:19:27;100047.38;;;-9.03;52.78
44351;BME280;62766;62.622;17.912;2023-03-26T03:21:56;100050.06;;;-9.24;52.78
44351;BME280;62766;62.622;17.912;2023-03-26T03:24:25;100046.59;;;-9.18;53.10
44351;BME280;62766;62.622;17.912;2023-03-26T03:26:54;100048.63;;;-9.11;53.31
44351;BME280;62766;62.622;17.912;2023-03-26T03:29:22;100045.39;;;-9.11;53.19
44351;BME280;62766;62.622;17.912;2023-03-26T03:31:51;100046.91;;;-9.20;53.03
44351;BME280;62766;62.622;17.912;2023-03-26T03:34:21;100045.39;;;-9.31;53.05
44351;BME280;62766;62.622;17.912;2023-03-26T03:36:50;100043.24;;;-9.38;52.89
44351;BME280;62766;62.622;17.912;2023-03-26T03:39:20;100048.60;;;-9.35;52.93
44351;BME280;62766;62.622;17.912;2023-03-26T03:41:48;100048.98;;;-9.46;53.06
44351;BME280;62766;62.622;17.912;2023-03-26T03:44:17;100049.77;;;-9.44;53.30
44351;BME280;62766;62.622;17.912;2023-03-26T03:46:45;100049.33;;;-9.46;53.24
44351;BME280;62766;62.622;17.912;2023-03-26T03:49:14;100052.38;;;-9.48;53.15
44351;BME280;62766;62.622;17.912;2023-03-26T03:51:44;100052.23;;;-9.65;52.91
44351;BME280;62766;62.622;17.912;2023-03-26T03:54:12;100055.55;;;-9.65;53.03
44351;BME280;62766;62.622;17.912;2023-03-26T03:56:41;100058.36;;;-9.79;53.28
44351;BME280;62766;62.622;17.912;2023-03-26T03:59:10;100061.55;;;-9.73;53.52
44351;BME280;62766;62.622;17.912;2023-03-26T04:03:21;100067.18;;;-10.13;53.72
44351;BME280;62766;62.622;17.912;2023-03-26T04:05:49;100066.82;;;-10.05;54.02
44351;BME280;62766;62.622;17.912;2023-03-26T04:08:19;100073.19;;;-10.09;53.97
44351;BME280;62766;62.622;17.912;2023-03-26T04:10:50;100077.14;;;-10.17;54.04
44351;BME280;62766;62.622;17.912;2023-03-26T04:13:20;100079.37;;;-10.00;54.15
44351;BME280;62766;62.622;17.912;2023-03-26T04:15:48;100085.24;;;-10.02;54.50
44351;BME280;62766;62.622;17.912;2023-03-26T04:18:17;100082.88;;;-10.01;54.55
44351;BME280;62766;62.622;17.912;2023-03-26T04:20:46;100081.75;;;-9.96;54.37
44351;BME280;62766;62.622;17.912;2023-03-26T04:23:16;100079.29;;;-9.83;54.30
44351;BME280;62766;62.622;17.912;2023-03-26T04:25:48;100083.82;;;-9.91;54.24
44351;BME280;62766;62.622;17.912;2023-03-26T04:28:26;100086.17;;;-9.84;54.10
44351;BME280;62766;62.622;17.912;2023-03-26T04:30:57;100087.49;;;-9.81;54.08
44351;BME280;62766;62.622;17.912;2023-03-26T04:33:26;100094.49;;;-9.85;53.98
44351;BME280;62766;62.622;17.912;2023-03-26T04:35:56;100099.55;;;-9.91;53.84
44351;BME280;62766;62.622;17.912;2023-03-26T04:38:25;100096.62;;;-9.89;53.79
44351;BME280;62766;62.622;17.912;2023-03-26T04:40:54;100098.14;;;-10.01;53.88
44351;BME280;62766;62.622;17.912;2023-03-26T04:43:22;100100.01;;;-9.98;53.76
44351;BME280;62766;62.622;17.912;2023-03-26T04:45:51;100102.65;;;-9.97;53.70
44351;BME280;62766;62.622;17.912;2023-03-26T04:48:20;100110.15;;;-10.04;53.92
44351;BME280;62766;62.622;17.912;2023-03-26T04:50:49;100109.80;;;-10.00;54.34
44351;BME280;62766;62.622;17.912;2023-03-26T04:53:20;100108.03;;;-9.96;54.40
44351;BME280;62766;62.622;17.912;2023-03-26T04:55:52;100109.14;;;-10.14;54.39
44351;BME280;62766;62.622;17.912;2023-03-26T04:58:23;100112.84;;;-9.71;54.33
44351;BME280;62766;62.622;17.912;2023-03-26T05:00:51;100113.75;;;-9.73;54.00
44351;BME280;62766;62.622;17.912;2023-03-26T05:03:20;100114.22;;;-9.66;53.93
44351;BME280;62766;62.622;17.912;2023-03-26T05:05:49;100110.64;;;-9.64;53.90
44351;BME280;62766;62.622;17.912;2023-03-26T05:08:19;100107.06;;;-9.53;54.18
44351;BME280;62766;62.622;17.912;2023-03-26T05:10:46;100105.30;;;-9.54;54.24
44351;BME280;62766;62.622;17.912;2023-03-26T05:13:15;100110.30;;;-9.44;53.98
44351;BME280;62766;62.622;17.912;2023-03-26T05:15:43;100109.72;;;-9.40;53.69
44351;BME280;62766;62.622;17.912;2023-03-26T05:18:12;100106.81;;;-9.27;53.66
44351;BME280;62766;62.622;17.912;2023-03-26T05:20:43;100108.90;;;-9.21;53.60
44351;BME280;62766;62.622;17.912;2023-03-26T05:23:12;100113.45;;;-9.15;53.65
44351;BME280;62766;62.622;17.912;2023-03-26T05:25:40;100114.62;;;-9.09;53.78
44351;BME280;62766;62.622;17.912;2023-03-26T05:28:09;100114.60;;;-9.02;53.76
44351;BME280;62766;62.622;17.912;2023-03-26T05:30:38;100116.66;;;-9.01;53.72
44351;BME280;62766;62.622;17.912;2023-03-26T05:33:07;100116.23;;;-8.74;53.56
44351;BME280;62766;62.622;17.912;2023-03-26T05:35:36;100118.62;;;-8.71;53.39
44351;BME280;62766;62.622;17.912;2023-03-26T05:38:04;100115.69;;;-8.62;53.24
44351;BME280;62766;62.622;17.912;2023-03-26T05:40:33;100120.47;;;-8.71;53.19
44351;BME280;62766;62.622;17.912;2023-03-26T05:43:02;100118.22;;;-8.64;53.34
44351;BME280;62766;62.622;17.912;2023-03-26T05:45:31;100116.60;;;-8.46;53.21
44351;BME280;62766;62.622;17.912;2023-03-26T05:47:59;100119.84;;;-8.33;52.88
44351;BME280;62766;62.622;17.912;2023-03-26T05:50:28;100123.48;;;-8.28;52.79
44351;BME280;62766;62.622;17.912;2023-03-26T05:52:57;100126.82;;;-8.31;52.70
44351;BME280;62766;62.622;17.912;2023-03-26T05:55:26;100127.94;;;-8.27;52.83
44351;BME280;62766;62.622;17.912;2023-03-26T05:57:55;100125.36;;;-8.07;52.62
44351;BME280;62766;62.622;17.912;2023-03-26T06:00:24;100129.12;;;-8.05;52.50
44351;BME280;62766;62.622;17.912;2023-03-26T06:02:52;100128.97;;;-7.90;52.26
44351;BME280;62766;62.622;17.912;2023-03-26T06:05:21;100128.59;;;-7.87;52.15
44351;BME280;62766;62.622;17.912;2023-03-26T06:07:50;100125.10;;;-7.82;52.00
44351;BME280;62766;62.622;17.912;2023-03-26T06:10:19;100125.04;;;-7.54;51.80
44351;BME280;62766;62.622;17.912;2023-03-26T06:12:47;100126.10;;;-7.46;51.58
44351;BME280;62766;62.622;17.912;2023-03-26T06:15:16;100129.09;;;-7.43;51.42
44351;BME280;62766;62.622;17.912;2023-03-26T06:17:45;100126.84;;;-7.36;51.43
44351;BME280;62766;62.622;17.912;2023-03-26T06:20:14;100123.72;;;-7.27;51.49
44351;BME280;62766;62.622;17.912;2023-03-26T06:22:42;100127.02;;;-7.29;51.33
44351;BME280;62766;62.622;17.912;2023-03-26T06:25:11;100126.74;;;-7.28;51.26
44351;BME280;62766;62.622;17.912;2023-03-26T06:27:39;100126.25;;;-7.35;51.23
44351;BME280;62766;62.622;17.912;2023-03-26T06:30:09;100127.30;;;-7.24;51.22
44351;BME280;62766;62.622;17.912;2023-03-26T06:32:39;100133.60;;;-7.23;51.18
44351;BME280;62766;62.622;17.912;2023-03-26T06:35:08;100132.13;;;-7.16;51.24
44351;BME280;62766;62.622;17.912;2023-03-26T06:37:36;100139.61;;;-7.00;51.20
44351;BME280;62766;62.622;17.912;2023-03-26T06:40:06;100138.88;;;-6.95;50.96
44351;BME280;62766;62.622;17.912;2023-03-26T06:42:35;100140.32;;;-6.80;50.96
44351;BME280;62766;62.622;17.912;2023-03-26T06:45:05;100138.98;;;-6.82;50.84
44351;BME280;62766;62.622;17.912;2023-03-26T06:47:34;100139.89;;;-6.88;50.75
44351;BME280;62766;62.622;17.912;2023-03-26T06:50:04;100141.48;;;-6.80;50.69
44351;BME280;62766;62.622;17.912;2023-03-26T06:52:33;100145.13;;;-6.61;50.40
44351;BME280;62766;62.622;17.912;2023-03-26T06:55:03;100147.53;;;-6.50;50.30
44351;BME280;62766;62.622;17.912;2023-03-26T06:57:31;100149.80;;;-6.37;50.11
44351;BME280;62766;62.622;17.912;2023-03-26T06:59:59;100152.96;;;-6.19;50.19
44351;BME280;62766;62.622;17.912;2023-03-26T07:02:28;100154.56;;;-6.14;49.71
44351;BME280;62766;62.622;17.912;2023-03-26T07:04:57;100154.08;;;-5.96;49.46
44351;BME280;62766;62.622;17.912;2023-03-26T07:07:25;100149.59;;;-5.98;49.19
44351;BME280;62766;62.622;17.912;2023-03-26T07:09:54;100151.69;;;-5.77;48.78
44351;BME280;62766;62.622;17.912;2023-03-26T07:12:23;100154.58;;;-5.82;48.73
44351;BME280;62766;62.622;17.912;2023-03-26T07:14:52;100157.92;;;-5.86;48.82
44351;BME280;62766;62.622;17.912;2023-03-26T07:17:20;100162.44;;;-5.68;48.59
44351;BME280;62766;62.622;17.912;2023-03-26T07:19:49;100165.31;;;-5.82;48.31
44351;BME280;62766;62.622;17.912;2023-03-26T07:22:20;100166.31;;;-5.66;48.10
44351;BME280;62766;62.622;17.912;2023-03-26T07:24:49;100163.21;;;-5.48;47.90
44351;BME280;62766;62.622;17.912;2023-03-26T07:27:33;100166.17;;;-5.40;47.72
44351;BME280;62766;62.622;17.912;2023-03-26T07:30:07;100164.46;;;-5.49;47.73
44351;BME280;62766;62.622;17.912;2023-03-26T07:32:42;100167.18;;;-5.27;47.61
44351;BME280;62766;62.622;17.912;2023-03-26T07:35:20;100170.15;;;-5.13;46.93
44351;BME280;62766;62.622;17.912;2023-03-26T07:37:59;100167.36;;;-5.01;46.91
44351;BME280;62766;62.622;17.912;2023-03-26T07:40:42;100169.68;;;-5.05;46.61
44351;BME280;62766;62.622;17.912;2023-03-26T07:43:22;100171.33;;;-5.18;46.33
44351;BME280;62766;62.622;17.912;2023-03-26T07:45:54;100174.89;;;-5.08;46.38
44351;BME280;62766;62.622;17.912;2023-03-26T07:48:24;100175.43;;;-5.09;46.41
44351;BME280;62766;62.622;17.912;2023-03-26T07:50:54;100177.79;;;-4.92;46.41
44351;BME280;62766;62.622;17.912;2023-03-26T07:53:24;100176.03;;;-4.89;46.33
44351;BME280;62766;62.622;17.912;2023-03-26T07:55:57;100178.70;;;-4.64;45.95
44351;BME280;62766;62.622;17.912;2023-03-26T07:58:43;100182.92;;;-4.68;46.00
44351;BME280;62766;62.622;17.912;2023-03-26T08:01:21;100184.05;;;-4.61;45.82
44351;BME280;62766;62.622;17.912;2023-03-26T08:04:04;100188.93;;;-4.60;45.49
44351;BME280;62766;62.622;17.912;2023-03-26T08:06:38;100189.51;;;-4.44;45.79
44351;BME280;62766;62.622;17.912;2023-03-26T08:09:12;100191.49;;;-4.42;45.51
44351;BME280;62766;62.622;17.912;2023-03-26T08:11:49;100193.18;;;-4.31;45.49
44351;BME280;62766;62.622;17.912;2023-03-26T08:14:39;100197.08;;;-4.18;45.30
44351;BME280;62766;62.622;17.912;2023-03-26T08:17:13;100195.75;;;-4.04;44.79
44351;BME280;62766;62.622;17.912;2023-03-26T08:19:52;100199.02;;;-3.90;44.61
44351;BME280;62766;62.622;17.912;2023-03-26T08:22:26;100197.23;;;-3.66;44.29
44351;BME280;62766;62.622;17.912;2023-03-26T08:25:11;100199.57;;;-3.64;44.54
44351;BME280;62766;62.622;17.912;2023-03-26T08:27:50;100195.93;;;-3.48;43.76
44351;BME280;62766;62.622;17.912;2023-03-26T08:30:25;100196.92;;;-3.32;43.81
44351;BME280;62766;62.622;17.912;2023-03-26T08:32:56;100195.22;;;-3.20;43.50
44351;BME280;62766;62.622;17.912;2023-03-26T08:35:26;100192.83;;;-3.00;43.38
44351;BME280;62766;62.622;17.912;2023-03-26T08:37:55;100193.21;;;-2.75;42.89
44351;BME280;62766;62.622;17.912;2023-03-26T08:41:00;100198.53;;;-2.59;42.70
44351;BME280;62766;62.622;17.912;2023-03-26T08:43:55;100199.70;;;-2.70;42.48
44351;BME280;62766;62.622;17.912;2023-03-26T08:46:41;100199.11;;;-2.51;42.24
44351;BME280;62766;62.622;17.912;2023-03-26T08:49:34;100201.28;;;-2.34;42.24
44351;BME280;62766;62.622;17.912;2023-03-26T08:52:31;100204.02;;;-2.16;42.29
44351;BME280;62766;62.622;17.912;2023-03-26T08:55:20;100207.73;;;-2.08;42.26
44351;BME280;62766;62.622;17.912;2023-03-26T08:58:49;100209.49;;;-1.92;41.76
44351;BME280;62766;62.622;17.912;2023-03-26T09:01:40;100203.55;;;-1.68;41.50
44351;BME280;62766;62.622;17.912;2023-03-26T09:04:41;100204.81;;;-1.74;41.10
44351;BME280;62766;62.622;17.912;2023-03-26T09:12:06;100213.90;;;-1.46;41.31
44351;BME280;62766;62.622;17.912;2023-03-26T09:15:18;100212.58;;;-1.41;41.00
44351;BME280;62766;62.622;17.912;2023-03-26T09:27:34;100208.95;;;-0.84;40.41
44351;BME280;62766;62.622;17.912;2023-03-26T09:30:36;100211.93;;;-0.68;40.30
44351;BME280;62766;62.622;17.912;2023-03-26T09:33:29;100212.66;;;-0.45;40.54
44351;BME280;62766;62.622;17.912;2023-03-26T09:36:40;100209.34;;;-0.43;39.79
44351;BME280;62766;62.622;17.912;2023-03-26T09:39:19;100208.96;;;-0.53;39.68
44351;BME280;62766;62.622;17.912;2023-03-26T09:42:00;100210.04;;;-0.49;39.76
44351;BME280;62766;62.622;17.912;2023-03-26T09:45:03;100208.67;;;-0.33;39.28
44351;BME280;62766;62.622;17.912;2023-03-26T09:47:48;100209.85;;;-0.27;39.51
44351;BME280;62766;62.622;17.912;2023-03-26T09:50:31;100210.26;;;-0.19;39.44
44351;BME280;62766;62.622;17.912;2023-03-26T09:53:17;100214.50;;;-0.06;38.96
44351;BME280;62766;62.622;17.912;2023-03-26T09:56:00;100216.80;;;0.02;39.10
44351;BME280;62766;62.622;17.912;2023-03-26T09:58:40;100214.03;;;0.13;38.84
44351;BME280;62766;62.622;17.912;2023-03-26T10:03:32;100218.65;;;-0.17;38.69
44351;BME280;62766;62.622;17.912;2023-03-26T10:06:13;100216.08;;;0.04;39.00
44351;BME280;62766;62.622;17.912;2023-03-26T10:08:56;100219.18;;;0.10;39.01
44351;BME280;62766;62.622;17.912;2023-03-26T10:11:41;100218.31;;;0.15;38.62
44351;BME280;62766;62.622;17.912;2023-03-26T10:14:20;100215.82;;;0.27;38.50
44351;BME280;62766;62.622;17.912;2023-03-26T10:16:57;100219.29;;;0.42;38.31
44351;BME280;62766;62.622;17.912;2023-03-26T10:19:44;100220.65;;;0.52;38.35
44351;BME280;62766;62.622;17.912;2023-03-26T10:22:25;100212.75;;;0.66;38.57
44351;BME280;62766;62.622;17.912;2023-03-26T10:25:14;100218.22;;;0.67;38.22
44351;BME280;62766;62.622;17.912;2023-03-26T10:27:53;100220.90;;;0.70;38.11
44351;BME280;62766;62.622;17.912;2023-03-26T10:30:37;100217.70;;;0.92;37.68
44351;BME280;62766;62.622;17.912;2023-03-26T10:33:19;100214.26;;;0.83;37.55
44351;BME280;62766;62.622;17.912;2023-03-26T10:36:01;100218.82;;;0.80;37.30
44351;BME280;62766;62.622;17.912;2023-03-26T10:38:51;100218.27;;;0.88;37.48
44351;BME280;62766;62.622;17.912;2023-03-26T10:41:29;100219.91;;;1.07;37.12
44351;BME280;62766;62.622;17.912;2023-03-26T10:44:16;100219.79;;;1.26;36.66
44351;BME280;62766;62.622;17.912;2023-03-26T10:47:13;100227.63;;;1.28;36.59
44351;BME280;62766;62.622;17.912;2023-03-26T10:50:31;100222.57;;;1.33;36.76
44351;BME280;62766;62.622;17.912;2023-03-26T10:53:07;100225.74;;;1.67;36.43
44351;BME280;62766;62.622;17.912;2023-03-26T10:55:41;100224.65;;;1.69;36.28
44351;BME280;62766;62.622;17.912;2023-03-26T10:58:16;100226.30;;;1.75;36.28
44351;BME280;62766;62.622;17.912;2023-03-26T11:00:52;100224.28;;;1.76;35.84
44351;BME280;62766;62.622;17.912;2023-03-26T11:03:37;100224.89;;;1.59;36.55
44351;BME280;62766;62.622;17.912;2023-03-26T11:06:17;100225.26;;;1.74;36.47
44351;BME280;62766;62.622;17.912;2023-03-26T11:08:57;100221.73;;;1.56;36.35
44351;BME280;62766;62.622;17.912;2023-03-26T11:11:35;100223.51;;;1.60;36.58
44351;BME280;62766;62.622;17.912;2023-03-26T11:14:14;100218.82;;;1.50;36.76
44351;BME280;62766;62.622;17.912;2023-03-26T11:16:54;100217.66;;;1.43;36.94
44351;BME280;62766;62.622;17.912;2023-03-26T11:19:29;100221.27;;;1.42;37.13
44351;BME280;62766;62.622;17.912;2023-03-26T11:22:10;100225.29;;;1.46;37.18
44351;BME280;62766;62.622;17.912;2023-03-26T11:25:07;100221.56;;;1.54;37.25
44351;BME280;62766;62.622;17.912;2023-03-26T11:27:51;100219.06;;;1.79;36.94
44351;BME280;62766;62.622;17.912;2023-03-26T11:30:30;100223.05;;;1.82;37.35
44351;BME280;62766;62.622;17.912;2023-03-26T11:33:03;100221.73;;;1.83;36.89
44351;BME280;62766;62.622;17.912;2023-03-26T11:35:36;100222.42;;;1.97;36.93
44351;BME280;62766;62.622;17.912;2023-03-26T11:38:12;100223.91;;;2.31;36.50
44351;BME280;62766;62.622;17.912;2023-03-26T11:40:46;100224.95;;;2.11;36.21
44351;BME280;62766;62.622;17.912;2023-03-26T11:43:21;100229.06;;;2.10;36.28
44351;BME280;62766;62.622;17.912;2023-03-26T11:45:52;100231.64;;;2.12;36.42
44351;BME280;62766;62.622;17.912;2023-03-26T11:48:23;100230.93;;;2.16;36.21
44351;BME280;62766;62.622;17.912;2023-03-26T11:50:56;100227.98;;;2.09;36.02
44351;BME280;62766;62.622;17.912;2023-03-26T11:53:31;100233.29;;;2.24;36.36
44351;BME280;62766;62.622;17.912;2023-03-26T11:56:03;100235.23;;;2.18;35.76
44351;BME280;62766;62.622;17.912;2023-03-26T11:58:40;100229.72;;;2.03;35.33
44351;BME280;62766;62.622;17.912;2023-03-26T12:01:13;100233.62;;;2.07;36.14
44351;BME280;62766;62.622;17.912;2023-03-26T12:03:55;100237.27;;;2.08;35.79
44351;BME280;62766;62.622;17.912;2023-03-26T12:06:25;100237.32;;;1.97;35.78
44351;BME280;62766;62.622;17.912;2023-03-26T12:08:54;100240.21;;;2.12;36.16
44351;BME280;62766;62.622;17.912;2023-03-26T12:11:26;100241.50;;;2.07;36.37
44351;BME280;62766;62.622;17.912;2023-03-26T12:13:59;100246.37;;;1.90;36.69
44351;BME280;62766;62.622;17.912;2023-03-26T12:16:28;100245.29;;;1.94;37.32
44351;BME280;62766;62.622;17.912;2023-03-26T12:18:59;100248.51;;;2.16;36.62
44351;BME280;62766;62.622;17.912;2023-03-26T12:21:43;100249.71;;;2.05;36.97
44351;BME280;62766;62.622;17.912;2023-03-26T12:24:26;100251.11;;;2.03;37.27
44351;BME280;62766;62.622;17.912;2023-03-26T12:26:57;100252.95;;;2.25;37.90
44351;BME280;62766;62.622;17.912;2023-03-26T12:29:25;100256.13;;;2.38;37.54
44351;BME280;62766;62.622;17.912;2023-03-26T12:32:01;100255.11;;;2.60;37.13
44351;BME280;62766;62.622;17.912;2023-03-26T12:34:33;100252.11;;;2.61;37.16
44351;BME280;62766;62.622;17.912;2023-03-26T12:37:03;100259.23;;;2.69;37.23
44351;BME280;62766;62.622;17.912;2023-03-26T12:39:34;100254.31;;;2.50;37.18
44351;BME280;62766;62.622;17.912;2023-03-26T12:42:05;100256.03;;;2.56;37.26
44351;BME280;62766;62.622;17.912;2023-03-26T12:44:52;100255.91;;;2.64;37.51
44351;BME280;62766;62.622;17.912;2023-03-26T12:47:26;100256.55;;;2.56;37.19
44351;BME280;62766;62.622;17.912;2023-03-26T12:49:56;100257.91;;;2.46;37.98
44351;BME280;62766;62.622;17.912;2023-03-26T12:52:39;100260.99;;;2.31;37.56
44351;BME280;62766;62.622;17.912;2023-03-26T12:55:21;100256.93;;;2.08;37.91
44351;BME280;62766;62.622;17.912;2023-03-26T12:58:05;100256.63;;;2.11;37.65
44351;BME280;62766;62.622;17.912;2023-03-26T13:00:47;100259.87;;;2.19;37.92
44351;BME280;62766;62.622;17.912;2023-03-26T13:03:29;100254.82;;;2.56;37.78
44351;BME280;62766;62.622;17.912;2023-03-26T13:06:16;100263.04;;;2.64;36.98
44351;BME280;62766;62.622;17.912;2023-03-26T13:09:05;100255.73;;;2.75;37.10
44351;BME280;62766;62.622;17.912;2023-03-26T13:11:45;100250.98;;;2.94;36.91
44351;BME280;62766;62.622;17.912;2023-03-26T13:14:38;100257.06;;;3.01;36.65
44351;BME280;62766;62.622;17.912;2023-03-26T13:17:20;100254.60;;;3.13;36.44
44351;BME280;62766;62.622;17.912;2023-03-26T13:19:57;100250.95;;;2.91;36.03
44351;BME280;62766;62.622;17.912;2023-03-26T13:22:35;100252.14;;;2.81;36.38
44351;BME280;62766;62.622;17.912;2023-03-26T13:25:19;100253.96;;;3.08;35.97
44351;BME280;62766;62.622;17.912;2023-03-26T13:27:58;100250.95;;;3.14;35.75
44351;BME280;62766;62.622;17.912;2023-03-26T13:30:36;100242.46;;;3.34;34.88
44351;BME280;62766;62.622;17.912;2023-03-26T13:33:21;100249.82;;;2.95;35.33
44351;BME280;62766;62.622;17.912;2023-03-26T13:35:59;100253.71;;;2.72;36.24
44351;BME280;62766;62.622;17.912;2023-03-26T13:38:39;100252.88;;;2.97;35.87
44351;BME280;62766;62.622;17.912;2023-03-26T13:41:19;100253.57;;;2.43;35.83